Time;durP1;ratioP1;P1;durP2;ratioP2;P2;SDS_P1;SDS_P2;PMS_P1;PMS_P2;Temp;Humidity;BMP_temperature;BMP_pressure;BME280_temperature;BME280_humidity;BME280_pressure;Samples;Min_cycle;Max_cycle;Signal;HPM_P1;HPM_P2
2022/05/01 00:01:02;;;;;;;;;;;10.80;99.90;;;;;;5066768;28;20167;-87
2022/05/01 00:03:33;;;;;;;;;;;10.80;99.90;;;;;;5066477;28;20015;-87
2022/05/01 00:06:01;;;;;;;;;;;10.80;99.90;;;;;;5057039;28;19925;-87
2022/05/01 00:08:28;;;;;;;;;;;10.70;99.90;;;;;;5074014;28;19913;-88
2022/05/01 00:10:55;;;;;;;;;;;10.70;99.90;;;;;;5070140;28;19960;-87
2022/05/01 00:13:22;;;;;;;;;;;10.70;99.90;;;;;;5070627;28;19916;-87
2022/05/01 00:15:49;;;;;;;;;;;10.70;99.90;;;;;;5079024;28;19922;-87
2022/05/01 00:18:18;;;;;;;;;;;11.00;99.90;;;;;;5060624;28;19959;-87
2022/05/01 00:20:45;;;;;;;;;;;10.70;99.90;;;;;;5054628;28;19928;-87
2022/05/01 00:23:12;;;;;;;;;;;10.70;99.90;;;;;;5035424;28;19924;-87
2022/05/01 00:25:40;;;;;;;;;;;10.70;99.90;;;;;;5058305;28;20011;-87
2022/05/01 00:28:07;;;;;;;;;;;12.60;99.90;;;;;;5051134;28;19925;-87
2022/05/01 00:30:34;;;;;;;;;;;;;;;;;;5036327;28;20233;-86
2022/05/01 00:38:30;;;;;;;;;;;10.60;99.90;;;;;;5061733;28;19924;-86
2022/05/01 00:40:57;;;;;;;;;;;10.70;99.90;;;;;;5055383;28;19948;-86
2022/05/01 00:43:24;;;;;;;;;;;10.60;99.90;;;;;;5073656;28;19924;-86
2022/05/01 00:45:51;;;;;;;;;;;10.70;99.90;;;;;;5056040;28;20003;-87
2022/05/01 00:48:18;;;;;;;;;;;11.20;99.90;;;;;;5054213;28;20022;-87
2022/05/01 00:50:45;;;;;;;;;;;10.60;99.90;;;;;;5070510;28;20317;-86
2022/05/01 00:53:13;;;;;;;;;;;10.60;99.90;;;;;;5055608;28;19924;-86
2022/05/01 00:55:43;;;;;;;;;;;10.50;99.90;;;;;;5064733;28;19975;-86
2022/05/01 00:58:11;;;;;;;;;;;10.50;99.90;;;;;;5065552;28;19956;-86
2022/05/01 01:00:37;;;;;;;;;;;10.60;99.90;;;;;;5061868;28;19952;-87
2022/05/01 01:03:04;;;;;;;;;;;10.60;99.90;;;;;;5055439;28;19925;-86
2022/05/01 01:05:31;;;;;;;;;;;10.50;99.90;;;;;;5053654;28;19929;-87
2022/05/01 01:08:00;;;;;;;;;;;10.50;99.90;;;;;;5053569;28;20345;-86
2022/05/01 01:10:28;;;;;;;;;;;12.10;99.90;;;;;;5053648;28;19943;-87
2022/05/01 01:12:55;;;;;;;;;;;10.50;99.90;;;;;;5053282;28;19920;-87
2022/05/01 01:15:22;;;;;;;;;;;10.50;99.90;;;;;;5070144;28;19921;-86
2022/05/01 01:17:52;;;;;;;;;;;10.50;99.90;;;;;;5069692;28;19956;-87
2022/05/01 01:20:21;;;;;;;;;;;10.50;99.90;;;;;;5071186;28;19924;-88
2022/05/01 01:22:50;;;;;;;;;;;12.10;99.90;;;;;;5053684;28;19944;-87
2022/05/01 01:25:19;;;;;;;;;;;10.50;99.90;;;;;;5064751;28;19924;-87
2022/05/01 01:27:46;;;;;;;;;;;10.50;99.90;;;;;;5052644;28;19924;-87
2022/05/01 01:32:57;;;;;;;;;;;10.50;99.90;;;;;;5054025;28;19970;-86
2022/05/01 01:35:24;;;;;;;;;;;11.60;99.90;;;;;;5052980;28;19978;-86
2022/05/01 01:37:53;;;;;;;;;;;10.50;99.90;;;;;;5070820;28;19943;-87
2022/05/01 01:40:22;;;;;;;;;;;10.50;99.90;;;;;;5054020;28;19920;-86
2022/05/01 01:42:50;;;;;;;;;;;10.50;99.90;;;;;;5054125;28;20082;-86
2022/05/01 01:45:17;;;;;;;;;;;10.40;99.90;;;;;;5052882;28;19933;-87
2022/05/01 01:47:44;;;;;;;;;;;10.40;99.90;;;;;;5033521;28;19921;-85
2022/05/01 01:50:12;;;;;;;;;;;10.40;99.90;;;;;;5032349;28;19967;-85
2022/05/01 01:52:39;;;;;;;;;;;10.40;99.90;;;;;;5048607;28;20287;-86
2022/05/01 01:55:09;;;;;;;;;;;10.40;99.90;;;;;;5033816;28;20385;-86
2022/05/01 01:57:35;;;;;;;;;;;10.30;99.90;;;;;;5035747;28;19960;-86
2022/05/01 02:00:02;;;;;;;;;;;10.30;99.90;;;;;;5050114;28;19921;-86
2022/05/01 02:02:39;;;;;;;;;;;10.90;99.90;;;;;;5041537;28;19967;-87
2022/05/01 02:05:07;;;;;;;;;;;10.30;99.90;;;;;;5034413;28;20019;-86
2022/05/01 02:07:34;;;;;;;;;;;10.30;99.90;;;;;;5051313;28;19921;-86
2022/05/01 02:10:01;;;;;;;;;;;10.30;99.90;;;;;;5036552;28;20057;-86
2022/05/01 02:12:30;;;;;;;;;;;10.30;99.90;;;;;;5039417;28;20039;-86
2022/05/01 02:14:56;;;;;;;;;;;10.30;99.90;;;;;;5058584;28;20405;-86
2022/05/01 02:17:23;;;;;;;;;;;10.30;99.90;;;;;;5032204;28;20357;-87
2022/05/01 02:19:50;;;;;;;;;;;10.30;99.90;;;;;;5031569;28;19920;-87
2022/05/01 02:22:17;;;;;;;;;;;10.30;99.90;;;;;;5047479;28;19921;-87
2022/05/01 02:24:44;;;;;;;;;;;10.30;99.90;;;;;;5031911;28;19925;-85
2022/05/01 02:27:11;;;;;;;;;;;10.20;99.90;;;;;;5037050;28;19998;-85
2022/05/01 02:29:42;;;;;;;;;;;11.00;99.90;;;;;;5061533;28;19931;-86
2022/05/01 02:32:08;;;;;;;;;;;10.20;99.90;;;;;;5048907;28;19931;-86
2022/05/01 02:34:35;;;;;;;;;;;10.10;99.90;;;;;;5049307;28;19944;-86
2022/05/01 02:37:02;;;;;;;;;;;10.40;99.90;;;;;;5031992;28;20122;-87
2022/05/01 02:39:29;;;;;;;;;;;10.10;99.90;;;;;;5034949;28;20012;-87
2022/05/01 02:41:56;;;;;;;;;;;9.50;99.90;;;;;;5033010;28;19987;-86
2022/05/01 02:44:22;;;;;;;;;;;10.00;99.90;;;;;;5032991;28;19975;-86
2022/05/01 02:46:51;;;;;;;;;;;11.60;99.90;;;;;;5030378;28;19964;-86
2022/05/01 02:49:18;;;;;;;;;;;10.00;99.90;;;;;;5040461;28;19940;-86
2022/05/01 02:51:44;;;;;;;;;;;10.50;99.90;;;;;;5059362;28;19925;-86
2022/05/01 02:54:11;;;;;;;;;;;9.90;99.90;;;;;;5048814;28;19973;-88
2022/05/01 02:56:38;;;;;;;;;;;9.90;99.90;;;;;;5078315;28;20292;-87
2022/05/01 02:59:09;;;;;;;;;;;9.90;99.90;;;;;;5053857;28;19924;-88
2022/05/01 03:01:36;;;;;;;;;;;9.80;99.90;;;;;;5052324;28;19930;-87
2022/05/01 03:04:04;;;;;;;;;;;9.80;99.90;;;;;;5050239;28;19927;-87
2022/05/01 03:06:32;;;;;;;;;;;11.70;99.90;;;;;;5047443;28;19931;-85
2022/05/01 03:08:59;;;;;;;;;;;9.70;99.90;;;;;;5031641;28;19965;-85
2022/05/01 03:11:27;;;;;;;;;;;9.70;99.90;;;;;;5041338;28;19931;-86
2022/05/01 03:13:53;;;;;;;;;;;9.60;99.90;;;;;;5032716;28;20015;-88
2022/05/01 03:16:20;;;;;;;;;;;9.60;99.90;;;;;;5046198;28;19924;-88
2022/05/01 03:24:18;;;;;;;;;;;9.50;99.90;;;;;;5047406;28;19942;-87
2022/05/01 03:26:47;;;;;;;;;;;9.40;99.90;;;;;;5047870;28;19924;-85
2022/05/01 03:29:14;;;;;;;;;;;9.40;99.90;;;;;;5049557;28;20310;-85
2022/05/01 03:31:40;;;;;;;;;;;9.40;99.90;;;;;;5058388;28;20032;-86
2022/05/01 03:34:07;;;;;;;;;;;9.30;99.90;;;;;;5057420;28;19921;-86
2022/05/01 03:36:35;;;;;;;;;;;9.20;99.90;;;;;;5051959;28;20010;-86
2022/05/01 03:39:04;;;;;;;;;;;9.20;99.90;;;;;;5075125;28;19992;-86
2022/05/01 03:41:32;;;;;;;;;;;9.10;99.90;;;;;;5066114;28;19991;-85
2022/05/01 03:43:58;;;;;;;;;;;9.10;99.90;;;;;;5050536;28;19946;-87
2022/05/01 03:46:25;;;;;;;;;;;9.00;99.90;;;;;;5046501;28;19925;-85
2022/05/01 03:48:52;;;;;;;;;;;9.00;99.90;;;;;;5036620;28;19921;-86
2022/05/01 03:51:19;;;;;;;;;;;8.80;99.90;;;;;;5042548;28;20027;-86
2022/05/01 03:53:47;;;;;;;;;;;8.70;99.90;;;;;;5043618;28;20705;-86
2022/05/01 03:56:14;;;;;;;;;;;8.70;99.90;;;;;;5050675;28;19956;-86
2022/05/01 03:58:41;;;;;;;;;;;8.60;99.90;;;;;;5043316;28;20019;-86
2022/05/01 04:01:08;;;;;;;;;;;8.50;99.90;;;;;;5053408;28;19928;-86
2022/05/01 04:03:35;;;;;;;;;;;8.50;99.90;;;;;;5071612;28;19924;-88
2022/05/01 04:06:02;;;;;;;;;;;8.30;99.90;;;;;;5052201;28;19931;-87
2022/05/01 04:26:04;;;;;;;;;;;7.90;99.90;;;;;;4985738;22;20012;-70
2022/05/01 04:28:31;;;;;;;;;;;7.90;99.90;;;;;;5062252;28;19925;-70
2022/05/01 04:30:57;;;;;;;;;;;7.90;99.90;;;;;;5079145;28;19935;-70
2022/05/01 04:33:24;;;;;;;;;;;7.90;99.90;;;;;;5071294;28;19961;-70
2022/05/01 04:35:51;;;;;;;;;;;8.00;99.90;;;;;;5067597;28;20285;-70
2022/05/01 04:38:19;;;;;;;;;;;8.00;99.90;;;;;;5055386;28;19924;-70
2022/05/01 04:40:47;;;;;;;;;;;8.10;99.90;;;;;;5054184;28;19932;-70
2022/05/01 04:43:17;;;;;;;;;;;8.10;99.90;;;;;;5045317;28;20286;-70
2022/05/01 04:45:44;;;;;;;;;;;8.20;99.90;;;;;;5042626;28;20352;-70
2022/05/01 04:48:12;;;;;;;;;;;8.20;99.90;;;;;;5046482;28;19931;-70
2022/05/01 04:50:39;;;;;;;;;;;8.30;99.90;;;;;;5035640;28;19932;-70
2022/05/01 04:53:07;;;;;;;;;;;8.30;99.90;;;;;;5038464;28;20353;-70
2022/05/01 04:55:34;;;;;;;;;;;8.40;99.90;;;;;;5070577;28;19953;-70
2022/05/01 04:58:01;;;;;;;;;;;8.50;99.90;;;;;;5048571;28;19925;-70
2022/05/01 05:00:30;;;;;;;;;;;8.60;99.90;;;;;;5043525;28;19932;-70
2022/05/01 05:02:57;;;;;;;;;;;8.70;99.90;;;;;;5037388;28;19987;-70
2022/05/01 05:05:26;;;;;;;;;;;9.00;99.90;;;;;;5060686;28;19928;-70
2022/05/01 05:07:53;;;;;;;;;;;9.00;99.90;;;;;;5046797;28;19936;-70
2022/05/01 05:10:19;;;;;;;;;;;9.10;99.90;;;;;;5051041;28;20324;-70
2022/05/01 05:12:46;;;;;;;;;;;9.20;99.90;;;;;;5051639;28;19916;-71
2022/05/01 05:15:15;;;;;;;;;;;9.40;99.90;;;;;;5050732;28;19928;-72
2022/05/01 05:17:43;;;;;;;;;;;9.50;99.90;;;;;;5052059;28;19970;-72
2022/05/01 05:20:12;;;;;;;;;;;9.70;99.90;;;;;;5052184;28;19927;-72
2022/05/01 05:22:40;;;;;;;;;;;9.90;99.90;;;;;;5042065;28;20103;-72
2022/05/01 05:25:09;;;;;;;;;;;10.10;99.90;;;;;;5037600;28;19959;-72
2022/05/01 05:27:35;;;;;;;;;;;10.40;99.90;;;;;;5048133;28;19920;-72
2022/05/01 05:30:03;;;;;;;;;;;10.60;99.90;;;;;;5046200;28;19926;-72
2022/05/01 05:32:30;;;;;;;;;;;10.80;99.90;;;;;;5037124;28;19932;-72
2022/05/01 05:34:58;;;;;;;;;;;11.00;99.90;;;;;;5055312;28;19924;-76
2022/05/01 05:37:24;;;;;;;;;;;11.20;99.90;;;;;;5054149;28;19929;-76
2022/05/01 05:39:51;;;;;;;;;;;11.40;99.90;;;;;;5046050;28;19928;-76
2022/05/01 05:42:18;;;;;;;;;;;11.50;99.90;;;;;;5068914;28;19925;-76
2022/05/01 05:44:46;;;;;;;;;;;11.80;99.90;;;;;;5043657;28;19963;-73
2022/05/01 05:47:13;;;;;;;;;;;12.10;99.90;;;;;;5051416;28;19924;-74
2022/05/01 05:49:39;;;;;;;;;;;12.30;99.90;;;;;;5051186;28;19932;-74
2022/05/01 05:52:08;;;;;;;;;;;12.60;99.90;;;;;;5057454;28;19921;-75
2022/05/01 05:54:35;;;;;;;;;;;12.90;99.90;;;;;;5067618;28;19921;-74
2022/05/01 05:57:02;;;;;;;;;;;13.30;99.90;;;;;;5055115;28;20127;-74
2022/05/01 05:59:28;;;;;;;;;;;14.20;99.90;;;;;;5036060;28;19948;-75
2022/05/01 06:01:55;;;;;;;;;;;15.00;99.90;;;;;;5059861;28;19924;-74
2022/05/01 06:04:23;;;;;;;;;;;16.20;99.90;;;;;;5055299;28;19968;-75
2022/05/01 06:06:49;;;;;;;;;;;17.70;99.90;;;;;;5046504;28;19970;-74
2022/05/01 06:09:17;;;;;;;;;;;19.20;99.90;;;;;;5050952;28;19921;-74
2022/05/01 06:11:44;;;;;;;;;;;20.60;99.90;;;;;;5050182;28;19931;-73
2022/05/01 06:14:11;;;;;;;;;;;21.70;99.90;;;;;;5065360;28;19990;-76
2022/05/01 06:16:38;;;;;;;;;;;22.80;99.90;;;;;;5042787;28;19944;-76
2022/05/01 06:19:05;;;;;;;;;;;23.50;99.90;;;;;;5042119;28;20026;-74
2022/05/01 06:21:32;;;;;;;;;;;23.30;99.90;;;;;;5060771;28;19925;-74
2022/05/01 06:23:59;;;;;;;;;;;23.20;99.90;;;;;;5044642;28;19932;-74
2022/05/01 06:26:27;;;;;;;;;;;23.60;99.90;;;;;;5045234;28;20334;-74
2022/05/01 06:28:54;;;;;;;;;;;24.10;99.90;;;;;;5058064;28;19928;-75
2022/05/01 06:31:20;;;;;;;;;;;24.50;99.80;;;;;;5043462;28;19925;-74
2022/05/01 06:33:47;;;;;;;;;;;24.40;98.60;;;;;;5047246;28;20417;-74
2022/05/01 06:36:15;;;;;;;;;;;23.60;96.70;;;;;;5054375;28;19925;-74
2022/05/01 06:38:43;;;;;;;;;;;22.20;95.90;;;;;;5046681;28;20023;-74
2022/05/01 06:41:10;;;;;;;;;;;20.90;96.30;;;;;;5062024;28;19925;-76
2022/05/01 06:43:39;;;;;;;;;;;20.00;96.60;;;;;;5051022;28;20304;-75
2022/05/01 06:46:06;;;;;;;;;;;19.20;96.80;;;;;;5052445;28;19924;-75
2022/05/01 06:48:33;;;;;;;;;;;18.70;97.40;;;;;;5055621;28;19929;-75
2022/05/01 06:51:00;;;;;;;;;;;18.10;97.40;;;;;;5046535;28;20210;-75
2022/05/01 06:53:26;;;;;;;;;;;17.80;98.00;;;;;;5045171;28;19979;-75
2022/05/01 06:55:55;;;;;;;;;;;17.40;97.40;;;;;;5051509;28;19921;-75
2022/05/01 06:58:22;;;;;;;;;;;16.90;97.60;;;;;;5057488;28;19924;-74
2022/05/01 07:00:52;;;;;;;;;;;16.50;98.00;;;;;;5058619;28;19931;-74
2022/05/01 07:03:18;;;;;;;;;;;16.30;98.40;;;;;;5058311;28;20304;-74
2022/05/01 07:05:45;;;;;;;;;;;16.30;98.90;;;;;;5058005;28;19924;-75
2022/05/01 07:08:12;;;;;;;;;;;17.80;99.90;;;;;;5059830;28;20031;-74
2022/05/01 07:10:39;;;;;;;;;;;16.30;99.30;;;;;;5047197;28;20284;-75
2022/05/01 07:13:06;;;;;;;;;;;17.10;99.60;;;;;;5063086;28;19927;-75
2022/05/01 07:15:32;;;;;;;;;;;16.30;99.10;;;;;;5054059;28;19936;-75
2022/05/01 07:18:00;;;;;;;;;;;16.30;99.30;;;;;;5067558;22;20223;-71
2022/05/01 07:20:27;;;;;;;;;;;16.30;99.50;;;;;;5088889;28;19924;-71
2022/05/01 07:22:54;;;;;;;;;;;16.90;99.90;;;;;;5057923;28;19925;-71
2022/05/01 07:25:20;;;;;;;;;;;16.50;99.50;;;;;;5060614;28;19925;-70
2022/05/01 07:27:47;;;;;;;;;;;16.30;99.60;;;;;;5047207;28;19954;-71
2022/05/01 07:30:14;;;;;;;;;;;16.20;99.20;;;;;;5038858;28;19921;-72
2022/05/01 07:32:41;;;;;;;;;;;16.10;99.50;;;;;;5041079;28;20019;-72
2022/05/01 07:35:10;;;;;;;;;;;16.30;99.80;;;;;;5043772;28;19931;-72
2022/05/01 07:37:36;;;;;;;;;;;16.40;99.10;;;;;;5038814;28;19920;-72
2022/05/01 07:40:03;;;;;;;;;;;16.60;99.40;;;;;;5039832;28;19924;-72
2022/05/01 07:42:30;;;;;;;;;;;16.60;99.00;;;;;;5044088;28;19925;-72
2022/05/01 07:44:57;;;;;;;;;;;16.70;99.40;;;;;;5038149;28;20019;-72
2022/05/01 07:47:23;;;;;;;;;;;17.00;99.50;;;;;;5035974;28;19936;-72
2022/05/01 07:49:50;;;;;;;;;;;17.60;99.90;;;;;;5035901;28;19928;-72
2022/05/01 07:52:19;;;;;;;;;;;19.20;99.90;;;;;;5036480;28;19955;-72
2022/05/01 07:54:45;;;;;;;;;;;18.80;99.30;;;;;;5057929;28;20000;-73
2022/05/01 08:00:04;;;;;;;;;;;19.70;98.40;;;;;;5017776;28;19947;-73
2022/05/01 08:02:35;;;;;;;;;;;20.10;98.30;;;;;;5016119;28;20776;-73
2022/05/01 08:05:01;;;;;;;;;;;20.50;98.00;;;;;;5017497;28;20445;-73
2022/05/01 08:07:29;;;;;;;;;;;20.90;97.80;;;;;;5003691;28;20016;-73
2022/05/01 08:09:55;;;;;;;;;;;21.30;97.20;;;;;;5003809;28;19952;-73
2022/05/01 08:12:22;;;;;;;;;;;21.80;96.80;;;;;;5006252;28;20349;-73
2022/05/01 08:14:49;;;;;;;;;;;22.20;95.80;;;;;;5007346;28;20334;-73
2022/05/01 08:17:16;;;;;;;;;;;22.30;94.20;;;;;;5004797;28;19929;-73
2022/05/01 08:22:28;;;;;;;;;;;22.20;94.60;;;;;;5003077;28;20452;-73
2022/05/01 08:24:55;;;;;;;;;;;22.70;94.70;;;;;;5001646;28;19929;-73
2022/05/01 08:27:22;;;;;;;;;;;22.90;94.10;;;;;;5000814;28;20395;-72
2022/05/01 08:29:48;;;;;;;;;;;22.90;94.00;;;;;;4999834;28;19948;-73
2022/05/01 08:32:15;;;;;;;;;;;23.00;92.20;;;;;;5001239;28;19925;-73
2022/05/01 08:34:42;;;;;;;;;;;22.50;91.30;;;;;;5002397;28;19940;-73
2022/05/01 08:37:08;;;;;;;;;;;22.20;92.80;;;;;;5002140;28;19933;-73
2022/05/01 08:39:36;;;;;;;;;;;22.20;92.30;;;;;;5003845;28;19925;-73
2022/05/01 08:42:04;;;;;;;;;;;22.30;91.80;;;;;;5000692;28;19936;-72
2022/05/01 08:44:32;;;;;;;;;;;22.40;92.00;;;;;;5001706;28;19994;-71
2022/05/01 08:47:09;;;;;;;;;;;22.10;91.30;;;;;;5000458;28;19926;-73
2022/05/01 08:49:38;;;;;;;;;;;21.90;90.30;;;;;;5006509;28;19932;-72
2022/05/01 08:52:06;;;;;;;;;;;21.20;90.20;;;;;;5008857;28;19971;-72
2022/05/01 08:54:34;;;;;;;;;;;21.00;90.70;;;;;;5007874;28;19932;-73
2022/05/01 08:57:02;;;;;;;;;;;21.20;91.40;;;;;;5008020;28;20271;-72
2022/05/01 08:59:29;;;;;;;;;;;21.30;90.40;;;;;;5009516;28;19925;-73
2022/05/01 09:01:56;;;;;;;;;;;21.20;90.30;;;;;;5009341;28;19921;-73
2022/05/01 09:04:24;;;;;;;;;;;21.30;90.40;;;;;;5018070;28;20394;-73
2022/05/01 09:06:52;;;;;;;;;;;21.30;90.20;;;;;;5008205;28;20187;-73
2022/05/01 09:09:19;;;;;;;;;;;21.30;89.50;;;;;;5010258;28;19965;-73
2022/05/01 09:14:33;;;;;;;;;;;21.10;88.10;;;;;;4992697;28;19936;-73
2022/05/01 09:17:17;;;;;;;;;;;20.80;87.70;;;;;;5007558;28;20328;-72
2022/05/01 09:19:44;;;;;;;;;;;20.40;87.50;;;;;;5008561;28;20000;-72
2022/05/01 09:22:12;;;;;;;;;;;19.70;87.10;;;;;;5006132;28;19929;-72
2022/05/01 09:24:39;;;;;;;;;;;19.10;87.10;;;;;;5007735;28;19968;-73
2022/05/01 09:27:06;;;;;;;;;;;18.40;87.70;;;;;;5007209;28;20144;-73
2022/05/01 09:29:34;;;;;;;;;;;19.40;89.30;;;;;;5007879;28;20445;-72
2022/05/01 09:32:03;;;;;;;;;;;18.30;87.90;;;;;;5003809;28;19922;-72
2022/05/01 09:34:31;;;;;;;;;;;18.40;88.50;;;;;;5011335;28;20405;-74
2022/05/01 09:36:59;;;;;;;;;;;18.10;88.00;;;;;;4996248;28;19928;-73
2022/05/01 09:39:27;;;;;;;;;;;18.10;88.60;;;;;;5011592;28;19921;-72
2022/05/01 09:41:54;;;;;;;;;;;18.00;88.90;;;;;;5009252;28;19926;-72
2022/05/01 09:44:21;;;;;;;;;;;18.00;89.60;;;;;;4999333;28;19921;-72
2022/05/01 09:46:50;;;;;;;;;;;18.10;89.10;;;;;;5006111;28;19925;-73
2022/05/01 09:49:18;;;;;;;;;;;18.00;88.90;;;;;;5012012;28;20038;-73
2022/05/01 09:51:47;;;;;;;;;;;17.90;89.20;;;;;;5011943;28;20041;-73
2022/05/01 09:54:18;;;;;;;;;;;17.80;88.60;;;;;;5008394;28;19925;-72
2022/05/01 09:56:46;;;;;;;;;;;17.70;89.90;;;;;;5002429;28;20405;-73
2022/05/01 09:59:13;;;;;;;;;;;19.50;90.80;;;;;;5016930;28;19921;-72
2022/05/01 10:01:40;;;;;;;;;;;17.80;90.40;;;;;;4995376;28;19926;-73
2022/05/01 10:04:08;;;;;;;;;;;17.80;90.00;;;;;;5006837;28;19932;-73
2022/05/01 10:06:35;;;;;;;;;;;17.90;90.00;;;;;;5014993;28;19947;-72
2022/05/01 10:09:02;;;;;;;;;;;18.00;90.20;;;;;;5006572;28;20314;-72
2022/05/01 10:11:29;;;;;;;;;;;18.10;90.20;;;;;;5020338;28;20458;-72
2022/05/01 10:13:56;;;;;;;;;;;18.00;90.20;;;;;;5003298;28;19929;-73
2022/05/01 10:16:24;;;;;;;;;;;17.80;90.30;;;;;;5004572;28;19928;-73
2022/05/01 10:18:50;;;;;;;;;;;18.80;91.00;;;;;;5006077;28;19925;-73
2022/05/01 10:21:18;;;;;;;;;;;17.90;90.90;;;;;;5014140;28;19936;-73
2022/05/01 10:23:46;;;;;;;;;;;17.90;90.80;;;;;;5007633;28;19998;-74
2022/05/01 10:26:16;;;;;;;;;;;18.00;91.00;;;;;;4996528;28;19996;-73
2022/05/01 10:29:12;;;;;;;;;;;18.20;90.60;;;;;;5008091;28;20000;-74
2022/05/01 10:34:57;;;;;;;;;;;19.10;91.40;;;;;;5004911;28;19928;-74
2022/05/01 10:37:29;;;;;;;;;;;19.80;90.90;;;;;;4999726;28;20390;-74
2022/05/01 10:39:59;;;;;;;;;;;20.40;90.50;;;;;;5003582;28;19926;-74
2022/05/01 10:42:32;;;;;;;;;;;21.00;90.20;;;;;;4990188;28;20402;-76
2022/05/01 10:44:59;;;;;;;;;;;21.00;88.40;;;;;;5004000;28;19988;-75
2022/05/01 10:47:36;;;;;;;;;;;21.20;89.70;;;;;;4990773;28;19929;-75
2022/05/01 10:50:06;;;;;;;;;;;21.70;89.40;;;;;;5004629;28;19925;-74
2022/05/01 10:52:34;;;;;;;;;;;22.10;88.60;;;;;;5010139;28;19925;-75
2022/05/01 10:55:04;;;;;;;;;;;22.50;88.20;;;;;;5006876;28;19926;-75
2022/05/01 10:57:32;;;;;;;;;;;22.40;84.10;;;;;;5006163;28;19967;-75
2022/05/01 11:00:05;;;;;;;;;;;22.10;83.30;;;;;;5005833;28;19955;-75
2022/05/01 11:02:35;;;;;;;;;;;21.60;83.20;;;;;;5002484;28;20526;-74
2022/05/01 11:05:02;;;;;;;;;;;21.20;83.80;;;;;;5001056;28;20029;-75
2022/05/01 11:07:29;;;;;;;;;;;21.30;85.00;;;;;;5006570;28;19925;-75
2022/05/01 11:09:58;;;;;;;;;;;21.70;84.80;;;;;;5005943;28;20334;-75
2022/05/01 11:12:26;;;;;;;;;;;22.00;83.50;;;;;;5007101;28;19929;-74
2022/05/01 11:14:54;;;;;;;;;;;22.20;83.00;;;;;;4985469;28;19980;-73
2022/05/01 11:17:50;;;;;;;;;;;22.50;82.90;;;;;;5006282;28;19926;-74
2022/05/01 11:20:38;;;;;;;;;;;22.60;81.80;;;;;;4986983;28;20437;-74
2022/05/01 11:23:23;;;;;;;;;;;22.90;81.60;;;;;;5007084;28;19926;-74
2022/05/01 11:25:51;;;;;;;;;;;23.00;79.90;;;;;;5007485;28;19943;-74
2022/05/01 11:28:32;;;;;;;;;;;23.00;79.60;;;;;;5004053;28;19925;-74
2022/05/01 11:30:59;;;;;;;;;;;22.90;79.70;;;;;;5004665;28;19925;-74
2022/05/01 11:33:26;;;;;;;;;;;23.10;80.50;;;;;;5011287;28;20482;-75
2022/05/01 11:35:54;;;;;;;;;;;23.40;79.90;;;;;;5015255;28;19928;-74
2022/05/01 11:38:21;;;;;;;;;;;23.80;77.50;;;;;;5002458;28;20419;-74
2022/05/01 11:40:55;;;;;;;;;;;23.40;77.00;;;;;;5010029;28;19948;-74
2022/05/01 11:43:22;;;;;;;;;;;23.20;76.80;;;;;;4988808;28;20016;-77
2022/05/01 11:45:49;;;;;;;;;;;23.00;77.20;;;;;;5012209;28;19926;-77
2022/05/01 11:48:16;;;;;;;;;;;22.90;77.30;;;;;;5582041;22;19932;-78
2022/05/01 11:50:43;;;;;;;;;;;22.70;76.90;;;;;;5070392;28;20296;-76
2022/05/01 11:53:18;;;;;;;;;;;22.20;75.40;;;;;;5059294;28;19975;-77
2022/05/01 12:04:01;;;;;;;;;;;20.70;76.80;;;;;;5070225;28;20025;-77
2022/05/01 12:06:29;;;;;;;;;;;21.30;79.60;;;;;;5066391;28;19929;-78
2022/05/01 12:08:55;;;;;;;;;;;21.30;80.20;;;;;;5066410;28;19921;-78
2022/05/01 12:11:29;;;;;;;;;;;21.90;79.40;;;;;;5059957;28;19932;-77
2022/05/01 12:14:07;;;;;;;;;;;22.70;79.00;;;;;;5088288;22;19951;-73
2022/05/01 12:16:34;;;;;;;;;;;22.70;79.20;;;;;;5062092;28;19920;-74
2022/05/01 12:19:01;;;;;;;;;;;23.00;77.90;;;;;;5061604;28;19931;-73
2022/05/01 12:21:32;;;;;;;;;;;22.50;76.40;;;;;;5046769;28;19921;-73
2022/05/01 12:24:02;;;;;;;;;;;22.00;76.50;;;;;;5065336;28;20349;-74
2022/05/01 12:26:30;;;;;;;;;;;22.10;76.80;;;;;;5043312;28;19931;-74
2022/05/01 12:28:56;;;;;;;;;;;22.00;77.00;;;;;;5046867;28;20397;-73
2022/05/01 12:31:24;;;;;;;;;;;21.60;76.20;;;;;;5038303;28;19925;-74
2022/05/01 12:33:52;;;;;;;;;;;21.10;77.50;;;;;;5041681;28;19925;-74
2022/05/01 12:36:23;;;;;;;;;;;21.20;78.00;;;;;;5049256;28;19925;-74
2022/05/01 12:39:00;;;;;;;;;;;21.20;78.50;;;;;;5044751;28;19960;-74
2022/05/01 12:44:13;;;;;;;;;;;21.30;78.00;;;;;;5046646;28;20278;-74
2022/05/01 12:46:51;;;;;;;;;;;21.30;77.40;;;;;;5040782;28;19920;-73
2022/05/01 12:49:24;;;;;;;;;;;21.40;78.50;;;;;;5043341;28;19925;-74
2022/05/01 12:51:51;;;;;;;;;;;21.70;78.90;;;;;;5046364;28;19924;-74
2022/05/01 12:54:17;;;;;;;;;;;22.20;77.60;;;;;;5022326;28;19947;-74
2022/05/01 12:56:45;;;;;;;;;;;22.30;76.90;;;;;;5042500;28;20029;-73
2022/05/01 12:59:25;;;;;;;;;;;22.10;76.70;;;;;;5043554;28;19960;-73
2022/05/01 13:01:53;;;;;;;;;;;21.90;75.80;;;;;;5041075;28;20028;-73
2022/05/01 13:04:24;;;;;;;;;;;21.30;75.70;;;;;;5042560;28;19964;-73
2022/05/01 13:06:51;;;;;;;;;;;20.90;76.40;;;;;;5031053;28;19924;-73
2022/05/01 13:09:17;;;;;;;;;;;20.60;76.20;;;;;;5042160;28;19959;-74
2022/05/01 13:11:58;;;;;;;;;;;19.90;76.70;;;;;;5029021;28;19921;-74
2022/05/01 13:14:30;;;;;;;;;;;20.10;77.10;;;;;;5045109;28;20039;-74
2022/05/01 13:17:07;;;;;;;;;;;20.20;78.00;;;;;;5038715;28;19921;-74
2022/05/01 13:19:33;;;;;;;;;;;20.30;77.50;;;;;;5039860;28;19932;-74
2022/05/01 13:22:00;;;;;;;;;;;20.50;78.80;;;;;;5045170;28;19978;-74
2022/05/01 13:24:29;;;;;;;;;;;20.70;78.10;;;;;;5044407;28;20127;-74
2022/05/01 13:26:57;;;;;;;;;;;20.50;78.10;;;;;;5040815;28;19924;-74
2022/05/01 13:29:24;;;;;;;;;;;20.60;78.70;;;;;;5044336;28;20008;-74
2022/05/01 13:31:51;;;;;;;;;;;20.60;79.10;;;;;;5017565;28;20260;-74
2022/05/01 13:34:19;;;;;;;;;;;20.70;78.80;;;;;;5043308;28;19925;-73
2022/05/01 13:36:46;;;;;;;;;;;20.70;78.10;;;;;;5025377;28;19936;-74
2022/05/01 13:39:13;;;;;;;;;;;20.40;77.50;;;;;;5035860;28;19921;-74
2022/05/01 13:47:08;;;;;;;;;;;20.50;77.90;;;;;;5036645;28;19973;-74
2022/05/01 13:49:37;;;;;;;;;;;20.50;77.00;;;;;;5028767;28;20385;-72
2022/05/01 13:52:04;;;;;;;;;;;20.50;77.30;;;;;;5043426;28;19933;-73
2022/05/01 13:54:31;;;;;;;;;;;20.50;77.60;;;;;;5046836;28;20405;-73
2022/05/01 13:56:58;;;;;;;;;;;20.70;77.80;;;;;;5044085;28;19932;-73
2022/05/01 13:59:25;;;;;;;;;;;20.80;78.50;;;;;;5044966;28;19929;-73
2022/05/01 14:01:52;;;;;;;;;;;21.10;78.80;;;;;;5044355;28;19940;-73
2022/05/01 14:04:19;;;;;;;;;;;21.30;78.30;;;;;;5046021;28;20370;-74
2022/05/01 14:06:47;;;;;;;;;;;21.40;77.00;;;;;;5046162;28;19932;-74
2022/05/01 14:09:17;;;;;;;;;;;21.50;76.60;;;;;;5033146;28;19924;-75
2022/05/01 14:11:44;;;;;;;;;;;21.40;77.00;;;;;;5027031;28;19984;-74
2022/05/01 14:14:11;;;;;;;;;;;21.50;77.80;;;;;;5040756;28;19929;-74
2022/05/01 14:16:39;;;;;;;;;;;21.60;77.30;;;;;;5040657;28;19920;-74
2022/05/01 14:19:06;;;;;;;;;;;21.50;76.70;;;;;;5041481;28;19967;-74
2022/05/01 14:21:34;;;;;;;;;;;21.50;77.00;;;;;;5031563;28;19924;-74
2022/05/01 14:24:04;;;;;;;;;;;21.50;76.60;;;;;;5042376;28;19932;-74
2022/05/01 14:26:30;;;;;;;;;;;21.50;75.80;;;;;;5023758;28;19928;-74
2022/05/01 14:28:57;;;;;;;;;;;21.50;77.10;;;;;;5036669;28;19986;-74
2022/05/01 14:31:27;;;;;;;;;;;21.40;77.20;;;;;;5036215;28;20412;-75
2022/05/01 14:33:58;;;;;;;;;;;21.30;76.00;;;;;;5026419;28;19931;-74
2022/05/01 14:36:27;;;;;;;;;;;21.30;76.40;;;;;;5025445;28;19928;-74
2022/05/01 14:38:58;;;;;;;;;;;21.20;77.20;;;;;;5041587;28;20129;-73
2022/05/01 14:41:29;;;;;;;;;;;21.30;77.70;;;;;;5039298;28;20074;-73
2022/05/01 14:44:00;;;;;;;;;;;21.20;75.90;;;;;;5042336;28;19921;-73
2022/05/01 14:46:27;;;;;;;;;;;21.20;76.20;;;;;;5046847;28;19959;-73
2022/05/01 14:48:56;;;;;;;;;;;21.00;76.90;;;;;;5042267;28;19932;-73
2022/05/01 14:51:23;;;;;;;;;;;20.90;77.20;;;;;;5024557;28;20453;-73
2022/05/01 14:53:51;;;;;;;;;;;21.20;77.40;;;;;;5042515;28;19931;-74
2022/05/01 14:56:18;;;;;;;;;;;21.20;77.90;;;;;;5039940;28;19947;-73
2022/05/01 15:07:03;;;;;;;;;;;21.20;76.70;;;;;;5046951;28;19925;-74
2022/05/01 15:09:31;;;;;;;;;;;20.80;75.80;;;;;;5029060;28;20019;-73
2022/05/01 15:11:59;;;;;;;;;;;20.50;76.40;;;;;;5043931;28;19928;-73
2022/05/01 15:14:27;;;;;;;;;;;20.40;76.90;;;;;;5046443;28;19925;-73
2022/05/01 15:16:58;;;;;;;;;;;20.20;77.00;;;;;;5047346;28;19932;-73
2022/05/01 15:19:28;;;;;;;;;;;20.10;77.50;;;;;;5044902;28;19925;-74
2022/05/01 15:24:49;;;;;;;;;;;19.60;77.30;;;;;;5035632;28;19952;-74
2022/05/01 15:27:18;;;;;;;;;;;19.20;77.10;;;;;;5028504;28;19976;-74
2022/05/01 15:29:47;;;;;;;;;;;19.10;78.00;;;;;;5044170;28;20287;-74
2022/05/01 15:32:16;;;;;;;;;;;18.90;78.50;;;;;;5037208;28;19939;-74
2022/05/01 15:34:43;;;;;;;;;;;18.80;78.70;;;;;;5045749;28;20019;-74